sensor_id;sensor_type;location;lat;lon;timestamp;temperature;humidity
65995;HTU21D;52764;51.036;5.852;2023-05-07T00:01:46;17.59;72.93
65995;HTU21D;52764;51.036;5.852;2023-05-07T00:04:11;17.63;72.73
65995;HTU21D;52764;51.036;5.852;2023-05-07T00:06:39;17.60;72.72
65995;HTU21D;52764;51.036;5.852;2023-05-07T00:09:06;17.53;72.85
65995;HTU21D;52764;51.036;5.852;2023-05-07T00:11:32;17.49;72.99
65995;HTU21D;52764;51.036;5.852;2023-05-07T00:13:59;17.48;73.06
65995;HTU21D;52764;51.036;5.852;2023-05-07T00:16:25;17.52;73.03
65995;HTU21D;52764;51.036;5.852;2023-05-07T00:18:50;17.63;72.67
65995;HTU21D;52764;51.036;5.852;2023-05-07T00:21:16;17.70;72.47
65995;HTU21D;52764;51.036;5.852;2023-05-07T00:23:42;17.78;71.87
65995;HTU21D;52764;51.036;5.852;2023-05-07T00:26:08;17.85;71.50
65995;HTU21D;52764;51.036;5.852;2023-05-07T00:28:33;17.88;71.31
65995;HTU21D;52764;51.036;5.852;2023-05-07T00:30:59;17.90;71.25
65995;HTU21D;52764;51.036;5.852;2023-05-07T00:33:25;17.90;71.22
65995;HTU21D;52764;51.036;5.852;2023-05-07T00:35:52;17.89;71.22
65995;HTU21D;52764;51.036;5.852;2023-05-07T00:38:20;17.80;71.39
65995;HTU21D;52764;51.036;5.852;2023-05-07T00:40:45;17.59;72.06
65995;HTU21D;52764;51.036;5.852;2023-05-07T00:43:11;17.38;72.93
65995;HTU21D;52764;51.036;5.852;2023-05-07T00:45:38;17.21;73.60
65995;HTU21D;52764;51.036;5.852;2023-05-07T00:48:04;17.08;74.35
65995;HTU21D;52764;51.036;5.852;2023-05-07T00:50:31;17.07;74.64
65995;HTU21D;52764;51.036;5.852;2023-05-07T00:52:58;17.15;74.60
65995;HTU21D;52764;51.036;5.852;2023-05-07T00:55:25;17.20;74.41
65995;HTU21D;52764;51.036;5.852;2023-05-07T00:57:51;17.28;74.23
65995;HTU21D;52764;51.036;5.852;2023-05-07T01:00:18;17.31;74.02
65995;HTU21D;52764;51.036;5.852;2023-05-07T01:02:44;17.30;74.02
65995;HTU21D;52764;51.036;5.852;2023-05-07T01:05:16;17.28;74.16
65995;HTU21D;52764;51.036;5.852;2023-05-07T01:07:43;17.25;74.25
65995;HTU21D;52764;51.036;5.852;2023-05-07T01:10:10;17.22;74.32
65995;HTU21D;52764;51.036;5.852;2023-05-07T01:12:38;17.17;74.35
65995;HTU21D;52764;51.036;5.852;2023-05-07T01:15:07;17.11;74.51
65995;HTU21D;52764;51.036;5.852;2023-05-07T01:17:36;17.03;74.91
65995;HTU21D;52764;51.036;5.852;2023-05-07T01:20:04;17.63;75.25
65995;HTU21D;52764;51.036;5.852;2023-05-07T01:22:32;14.86;75.34
65995;HTU21D;52764;51.036;5.852;2023-05-07T01:25:00;16.95;75.43
65995;HTU21D;52764;51.036;5.852;2023-05-07T01:27:28;16.96;75.34
65995;HTU21D;52764;51.036;5.852;2023-05-07T01:29:53;16.90;75.43
65995;HTU21D;52764;51.036;5.852;2023-05-07T01:32:31;16.84;75.67
65995;HTU21D;52764;51.036;5.852;2023-05-07T01:35:01;16.73;76.08
65995;HTU21D;52764;51.036;5.852;2023-05-07T01:37:28;16.62;76.42
65995;HTU21D;52764;51.036;5.852;2023-05-07T01:39:54;16.52;76.87
65995;HTU21D;52764;51.036;5.852;2023-05-07T01:42:21;16.46;77.18
65995;HTU21D;52764;51.036;5.852;2023-05-07T01:44:47;16.41;77.38
65995;HTU21D;52764;51.036;5.852;2023-05-07T01:47:14;16.33;77.69
65995;HTU21D;52764;51.036;5.852;2023-05-07T01:49:41;16.28;77.99
65995;HTU21D;52764;51.036;5.852;2023-05-07T01:52:09;16.22;78.20
65995;HTU21D;52764;51.036;5.852;2023-05-07T01:54:35;16.24;78.30
65995;HTU21D;52764;51.036;5.852;2023-05-07T01:57:01;16.19;78.29
65995;HTU21D;52764;51.036;5.852;2023-05-07T01:59:27;16.14;78.52
65995;HTU21D;52764;51.036;5.852;2023-05-07T02:01:52;16.12;78.70
65995;HTU21D;52764;51.036;5.852;2023-05-07T02:04:18;16.07;78.81
65995;HTU21D;52764;51.036;5.852;2023-05-07T02:06:44;16.04;78.92
65995;HTU21D;52764;51.036;5.852;2023-05-07T02:09:11;16.01;79.16
65995;HTU21D;52764;51.036;5.852;2023-05-07T02:11:40;16.05;79.06
65995;HTU21D;52764;51.036;5.852;2023-05-07T02:14:05;16.12;78.93
65995;HTU21D;52764;51.036;5.852;2023-05-07T02:16:31;16.26;78.47
65995;HTU21D;52764;51.036;5.852;2023-05-07T02:18:57;16.35;78.11
65995;HTU21D;52764;51.036;5.852;2023-05-07T02:21:24;16.45;77.72
65995;HTU21D;52764;51.036;5.852;2023-05-07T02:23:50;16.49;77.34
65995;HTU21D;52764;51.036;5.852;2023-05-07T02:26:16;16.47;77.40
65995;HTU21D;52764;51.036;5.852;2023-05-07T02:28:42;16.46;77.57
65995;HTU21D;52764;51.036;5.852;2023-05-07T02:31:07;16.42;77.51
65995;HTU21D;52764;51.036;5.852;2023-05-07T02:33:34;16.36;77.68
65995;HTU21D;52764;51.036;5.852;2023-05-07T02:36:08;16.31;77.89
65995;HTU21D;52764;51.036;5.852;2023-05-07T02:38:38;16.29;77.94
65995;HTU21D;52764;51.036;5.852;2023-05-07T02:41:04;16.33;77.82
65995;HTU21D;52764;51.036;5.852;2023-05-07T02:43:30;16.43;77.58
65995;HTU21D;52764;51.036;5.852;2023-05-07T02:46:07;16.60;76.89
65995;HTU21D;52764;51.036;5.852;2023-05-07T02:48:36;16.74;76.30
65995;HTU21D;52764;51.036;5.852;2023-05-07T02:51:02;16.86;75.73
65995;HTU21D;52764;51.036;5.852;2023-05-07T02:53:29;16.96;75.14
65995;HTU21D;52764;51.036;5.852;2023-05-07T02:55:57;17.04;74.73
65995;HTU21D;52764;51.036;5.852;2023-05-07T02:58:23;17.08;74.51
65995;HTU21D;52764;51.036;5.852;2023-05-07T03:00:49;17.14;74.27
65995;HTU21D;52764;51.036;5.852;2023-05-07T03:03:38;17.17;73.90
65995;HTU21D;52764;51.036;5.852;2023-05-07T03:06:04;17.21;73.54
65995;HTU21D;52764;51.036;5.852;2023-05-07T03:08:30;17.23;73.47
65995;HTU21D;52764;51.036;5.852;2023-05-07T03:10:55;17.22;73.45
65995;HTU21D;52764;51.036;5.852;2023-05-07T03:13:21;17.18;73.56
65995;HTU21D;52764;51.036;5.852;2023-05-07T03:15:47;17.07;73.90
65995;HTU21D;52764;51.036;5.852;2023-05-07T03:18:13;16.98;74.18
65995;HTU21D;52764;51.036;5.852;2023-05-07T03:20:39;16.87;74.48
65995;HTU21D;52764;51.036;5.852;2023-05-07T03:23:05;16.82;74.63
65995;HTU21D;52764;51.036;5.852;2023-05-07T03:25:31;16.80;74.74
65995;HTU21D;52764;51.036;5.852;2023-05-07T03:27:58;16.78;74.83
65995;HTU21D;52764;51.036;5.852;2023-05-07T03:30:29;16.82;74.71
65995;HTU21D;52764;51.036;5.852;2023-05-07T03:32:55;16.85;74.55
65995;HTU21D;52764;51.036;5.852;2023-05-07T03:35:21;16.84;74.51
65995;HTU21D;52764;51.036;5.852;2023-05-07T03:37:47;16.80;74.63
65995;HTU21D;52764;51.036;5.852;2023-05-07T03:40:13;16.78;74.70
65995;HTU21D;52764;51.036;5.852;2023-05-07T03:42:45;16.78;74.67
65995;HTU21D;52764;51.036;5.852;2023-05-07T03:45:12;16.80;74.57
65995;HTU21D;52764;51.036;5.852;2023-05-07T03:47:41;16.80;74.60
65995;HTU21D;52764;51.036;5.852;2023-05-07T03:50:09;16.85;74.38
65995;HTU21D;52764;51.036;5.852;2023-05-07T03:52:35;16.89;74.12
65995;HTU21D;52764;51.036;5.852;2023-05-07T03:55:02;16.91;73.99
65995;HTU21D;52764;51.036;5.852;2023-05-07T03:57:30;16.80;74.15
65995;HTU21D;52764;51.036;5.852;2023-05-07T03:59:57;16.75;74.36
65995;HTU21D;52764;51.036;5.852;2023-05-07T04:02:23;16.76;74.25
65995;HTU21D;52764;51.036;5.852;2023-05-07T04:04:49;16.69;74.28
65995;HTU21D;52764;51.036;5.852;2023-05-07T04:07:16;16.51;74.76
65995;HTU21D;52764;51.036;5.852;2023-05-07T04:09:45;16.35;75.29
65995;HTU21D;52764;51.036;5.852;2023-05-07T04:12:10;16.25;75.70
65995;HTU21D;52764;51.036;5.852;2023-05-07T04:14:36;16.17;75.98
65995;HTU21D;52764;51.036;5.852;2023-05-07T04:17:02;16.04;76.50
65995;HTU21D;52764;51.036;5.852;2023-05-07T04:19:28;15.99;77.00
65995;HTU21D;52764;51.036;5.852;2023-05-07T04:21:54;16.01;77.16
65995;HTU21D;52764;51.036;5.852;2023-05-07T04:24:20;16.16;76.79
65995;HTU21D;52764;51.036;5.852;2023-05-07T04:26:46;16.26;76.51
65995;HTU21D;52764;51.036;5.852;2023-05-07T04:29:12;16.30;76.31
65995;HTU21D;52764;51.036;5.852;2023-05-07T04:31:38;16.37;76.10
65995;HTU21D;52764;51.036;5.852;2023-05-07T04:34:03;16.44;75.91
65995;HTU21D;52764;51.036;5.852;2023-05-07T04:36:30;16.52;75.59
65995;HTU21D;52764;51.036;5.852;2023-05-07T04:39:00;16.56;75.50
65995;HTU21D;52764;51.036;5.852;2023-05-07T04:41:26;16.50;75.78
65995;HTU21D;52764;51.036;5.852;2023-05-07T04:43:52;16.54;75.61
65995;HTU21D;52764;51.036;5.852;2023-05-07T04:46:20;16.47;75.86
65995;HTU21D;52764;51.036;5.852;2023-05-07T04:48:48;16.49;75.96
65995;HTU21D;52764;51.036;5.852;2023-05-07T04:51:13;16.52;76.05
65995;HTU21D;52764;51.036;5.852;2023-05-07T04:53:39;16.64;75.84
65995;HTU21D;52764;51.036;5.852;2023-05-07T04:56:06;16.77;74.85
65995;HTU21D;52764;51.036;5.852;2023-05-07T04:58:38;16.90;75.12
65995;HTU21D;52764;51.036;5.852;2023-05-07T05:01:04;17.17;74.48
65995;HTU21D;52764;51.036;5.852;2023-05-07T05:03:30;17.44;73.68
65995;HTU21D;52764;51.036;5.852;2023-05-07T05:05:56;17.78;73.04
65995;HTU21D;52764;51.036;5.852;2023-05-07T05:08:26;17.94;71.61
65995;HTU21D;52764;51.036;5.852;2023-05-07T05:10:52;17.96;71.13
65995;HTU21D;52764;51.036;5.852;2023-05-07T05:13:18;17.85;71.12
65995;HTU21D;52764;51.036;5.852;2023-05-07T05:15:44;17.54;71.74
65995;HTU21D;52764;51.036;5.852;2023-05-07T05:18:10;17.34;72.62
65995;HTU21D;52764;51.036;5.852;2023-05-07T05:20:36;17.24;73.24
65995;HTU21D;52764;51.036;5.852;2023-05-07T05:23:02;17.25;73.54
65995;HTU21D;52764;51.036;5.852;2023-05-07T05:25:29;17.41;73.23
65995;HTU21D;52764;51.036;5.852;2023-05-07T05:27:56;17.59;72.63
65995;HTU21D;52764;51.036;5.852;2023-05-07T05:30:22;17.66;72.21
65995;HTU21D;52764;51.036;5.852;2023-05-07T05:32:48;17.72;72.01
65995;HTU21D;52764;51.036;5.852;2023-05-07T05:35:13;17.72;71.98
65995;HTU21D;52764;51.036;5.852;2023-05-07T05:37:40;17.74;71.96
65995;HTU21D;52764;51.036;5.852;2023-05-07T05:40:07;17.67;71.94
65995;HTU21D;52764;51.036;5.852;2023-05-07T05:42:33;17.74;71.96
65995;HTU21D;52764;51.036;5.852;2023-05-07T05:44:59;17.85;71.59
65995;HTU21D;52764;51.036;5.852;2023-05-07T05:47:25;17.95;71.31
65995;HTU21D;52764;51.036;5.852;2023-05-07T05:49:54;18.00;70.93
65995;HTU21D;52764;51.036;5.852;2023-05-07T05:52:19;18.04;70.73
65995;HTU21D;52764;51.036;5.852;2023-05-07T05:54:45;17.98;70.63
65995;HTU21D;52764;51.036;5.852;2023-05-07T05:57:11;17.83;71.05
65995;HTU21D;52764;51.036;5.852;2023-05-07T05:59:37;17.64;71.64
65995;HTU21D;52764;51.036;5.852;2023-05-07T06:02:03;17.53;72.22
65995;HTU21D;52764;51.036;5.852;2023-05-07T06:04:29;17.47;72.62
65995;HTU21D;52764;51.036;5.852;2023-05-07T06:06:55;17.35;73.05
65995;HTU21D;52764;51.036;5.852;2023-05-07T06:09:23;17.41;73.46
65995;HTU21D;52764;51.036;5.852;2023-05-07T06:11:49;17.51;73.28
65995;HTU21D;52764;51.036;5.852;2023-05-07T06:14:16;17.56;73.48
65995;HTU21D;52764;51.036;5.852;2023-05-07T06:16:43;17.82;73.35
65995;HTU21D;52764;51.036;5.852;2023-05-07T06:19:09;18.00;72.88
65995;HTU21D;52764;51.036;5.852;2023-05-07T06:21:36;18.19;72.09
65995;HTU21D;52764;51.036;5.852;2023-05-07T06:24:02;18.27;71.41
65995;HTU21D;52764;51.036;5.852;2023-05-07T06:26:28;18.28;71.38
65995;HTU21D;52764;51.036;5.852;2023-05-07T06:28:53;18.41;71.19
65995;HTU21D;52764;51.036;5.852;2023-05-07T06:31:20;18.56;70.95
65995;HTU21D;52764;51.036;5.852;2023-05-07T06:34:07;18.72;70.19
65995;HTU21D;52764;51.036;5.852;2023-05-07T06:36:36;18.81;69.59
65995;HTU21D;52764;51.036;5.852;2023-05-07T06:39:10;18.83;69.54
65995;HTU21D;52764;51.036;5.852;2023-05-07T06:41:36;18.94;69.16
65995;HTU21D;52764;51.036;5.852;2023-05-07T06:44:07;19.11;68.62
65995;HTU21D;52764;51.036;5.852;2023-05-07T06:46:41;19.26;68.02
65995;HTU21D;52764;51.036;5.852;2023-05-07T06:49:07;19.31;67.69
65995;HTU21D;52764;51.036;5.852;2023-05-07T06:51:33;19.39;67.73
65995;HTU21D;52764;51.036;5.852;2023-05-07T06:54:02;19.54;67.17
65995;HTU21D;52764;51.036;5.852;2023-05-07T06:56:30;19.70;66.72
65995;HTU21D;52764;51.036;5.852;2023-05-07T06:58:56;19.92;66.22
65995;HTU21D;52764;51.036;5.852;2023-05-07T07:01:22;20.10;65.56
65995;HTU21D;52764;51.036;5.852;2023-05-07T07:03:48;20.19;65.37
65995;HTU21D;52764;51.036;5.852;2023-05-07T07:06:14;20.26;64.77
65995;HTU21D;52764;51.036;5.852;2023-05-07T07:08:41;20.36;64.76
65995;HTU21D;52764;51.036;5.852;2023-05-07T07:11:08;20.57;64.37
65995;HTU21D;52764;51.036;5.852;2023-05-07T07:13:34;20.74;63.76
65995;HTU21D;52764;51.036;5.852;2023-05-07T07:16:00;20.95;63.19
65995;HTU21D;52764;51.036;5.852;2023-05-07T07:18:26;1.18;62.81
65995;HTU21D;52764;51.036;5.852;2023-05-07T07:20:53;21.22;62.29
65995;HTU21D;52764;51.036;5.852;2023-05-07T07:23:19;21.33;62.18
65995;HTU21D;52764;51.036;5.852;2023-05-07T07:25:45;21.51;62.02
65995;HTU21D;52764;51.036;5.852;2023-05-07T07:28:11;21.72;61.57
65995;HTU21D;52764;51.036;5.852;2023-05-07T07:30:38;22.03;60.93
65995;HTU21D;52764;51.036;5.852;2023-05-07T07:33:04;22.38;59.78
65995;HTU21D;52764;51.036;5.852;2023-05-07T07:35:35;22.81;60.93
65995;HTU21D;52764;51.036;5.852;2023-05-07T07:38:01;23.05;57.61
65995;HTU21D;52764;51.036;5.852;2023-05-07T07:40:28;23.25;56.76
65995;HTU21D;52764;51.036;5.852;2023-05-07T07:42:54;23.49;55.97
65995;HTU21D;52764;51.036;5.852;2023-05-07T07:45:21;23.68;55.36
65995;HTU21D;52764;51.036;5.852;2023-05-07T07:47:48;23.92;54.89
65995;HTU21D;52764;51.036;5.852;2023-05-07T07:50:14;24.08;54.17
65995;HTU21D;52764;51.036;5.852;2023-05-07T07:52:40;24.24;53.81
65995;HTU21D;52764;51.036;5.852;2023-05-07T07:55:07;24.51;53.41
65995;HTU21D;52764;51.036;5.852;2023-05-07T07:57:33;25.12;51.98
65995;HTU21D;52764;51.036;5.852;2023-05-07T08:00:00;25.65;50.96
65995;HTU21D;52764;51.036;5.852;2023-05-07T08:02:27;26.05;49.87
65995;HTU21D;52764;51.036;5.852;2023-05-07T08:04:53;26.32;48.41
65995;HTU21D;52764;51.036;5.852;2023-05-07T08:07:19;26.41;47.83
65995;HTU21D;52764;51.036;5.852;2023-05-07T08:09:47;26.31;47.89
65995;HTU21D;52764;51.036;5.852;2023-05-07T08:12:15;26.46;47.31
65995;HTU21D;52764;51.036;5.852;2023-05-07T08:14:41;26.52;38.33
65995;HTU21D;52764;51.036;5.852;2023-05-07T08:17:08;26.43;47.54
65995;HTU21D;52764;51.036;5.852;2023-05-07T08:19:36;26.26;47.88
65995;HTU21D;52764;51.036;5.852;2023-05-07T08:22:03;26.15;47.99
65995;HTU21D;52764;51.036;5.852;2023-05-07T08:24:31;26.01;47.92
65995;HTU21D;52764;51.036;5.852;2023-05-07T08:26:57;25.92;48.08
65995;HTU21D;52764;51.036;5.852;2023-05-07T08:29:23;25.67;47.89
65995;HTU21D;52764;51.036;5.852;2023-05-07T08:31:48;25.45;47.80
65995;HTU21D;52764;51.036;5.852;2023-05-07T08:34:14;25.38;47.57
65995;HTU21D;52764;51.036;5.852;2023-05-07T08:36:42;25.35;47.23
65995;HTU21D;52764;51.036;5.852;2023-05-07T08:39:10;25.44;47.90
65995;HTU21D;52764;51.036;5.852;2023-05-07T08:41:36;25.68;48.21
65995;HTU21D;52764;51.036;5.852;2023-05-07T08:44:11;25.88;48.21
65995;HTU21D;52764;51.036;5.852;2023-05-07T08:46:37;25.92;48.06
65995;HTU21D;52764;51.036;5.852;2023-05-07T08:49:04;25.98;47.76
65995;HTU21D;52764;51.036;5.852;2023-05-07T08:51:31;25.97;47.60
65995;HTU21D;52764;51.036;5.852;2023-05-07T08:53:57;25.88;46.16
65995;HTU21D;52764;51.036;5.852;2023-05-07T08:56:28;25.80;47.56
65995;HTU21D;52764;51.036;5.852;2023-05-07T08:58:54;25.58;47.37
65995;HTU21D;52764;51.036;5.852;2023-05-07T09:01:26;25.63;47.76
65995;HTU21D;52764;51.036;5.852;2023-05-07T09:03:53;25.54;47.34
65995;HTU21D;52764;51.036;5.852;2023-05-07T09:06:19;25.39;48.38
65995;HTU21D;52764;51.036;5.852;2023-05-07T09:08:51;25.35;48.31
65995;HTU21D;52764;51.036;5.852;2023-05-07T09:11:20;25.48;48.18
65995;HTU21D;52764;51.036;5.852;2023-05-07T09:13:47;25.53;47.53
65995;HTU21D;52764;51.036;5.852;2023-05-07T09:16:13;25.47;47.50
65995;HTU21D;52764;51.036;5.852;2023-05-07T09:18:45;25.28;47.95
65995;HTU21D;52764;51.036;5.852;2023-05-07T09:21:18;25.08;48.47
65995;HTU21D;52764;51.036;5.852;2023-05-07T09:23:45;24.94;48.71
65995;HTU21D;52764;51.036;5.852;2023-05-07T09:26:14;25.01;49.23
65995;HTU21D;52764;51.036;5.852;2023-05-07T09:28:42;25.10;48.85
65995;HTU21D;52764;51.036;5.852;2023-05-07T09:31:11;25.25;48.55
65995;HTU21D;52764;51.036;5.852;2023-05-07T09:33:38;25.35;48.14
65995;HTU21D;52764;51.036;5.852;2023-05-07T09:36:05;25.52;48.37
65995;HTU21D;52764;51.036;5.852;2023-05-07T09:38:34;25.72;48.31
65995;HTU21D;52764;51.036;5.852;2023-05-07T09:41:11;25.94;48.08
65995;HTU21D;52764;51.036;5.852;2023-05-07T09:43:54;25.99;47.73
65995;HTU21D;52764;51.036;5.852;2023-05-07T09:46:29;26.07;47.95
65995;HTU21D;52764;51.036;5.852;2023-05-07T09:49:01;26.17;38.20
65995;HTU21D;52764;51.036;5.852;2023-05-07T09:51:43;26.12;46.86
65995;HTU21D;52764;51.036;5.852;2023-05-07T09:54:11;26.06;46.89
65995;HTU21D;52764;51.036;5.852;2023-05-07T09:56:40;25.95;46.71
65995;HTU21D;52764;51.036;5.852;2023-05-07T09:59:14;26.03;46.83
65995;HTU21D;52764;51.036;5.852;2023-05-07T10:01:43;26.09;46.22
65995;HTU21D;52764;51.036;5.852;2023-05-07T10:04:14;26.23;45.81
65995;HTU21D;52764;51.036;5.852;2023-05-07T10:06:42;26.25;45.67
65995;HTU21D;52764;51.036;5.852;2023-05-07T10:09:09;26.38;45.05
65995;HTU21D;52764;51.036;5.852;2023-05-07T10:11:37;26.50;44.19
65995;HTU21D;52764;51.036;5.852;2023-05-07T10:14:04;26.38;44.16
65995;HTU21D;52764;51.036;5.852;2023-05-07T10:16:36;26.42;43.76
65995;HTU21D;52764;51.036;5.852;2023-05-07T10:19:06;26.38;44.33
65995;HTU21D;52764;51.036;5.852;2023-05-07T10:21:36;26.42;44.25
65995;HTU21D;52764;51.036;5.852;2023-05-07T10:24:10;26.23;44.65
65995;HTU21D;52764;51.036;5.852;2023-05-07T10:26:45;26.10;44.80
65995;HTU21D;52764;51.036;5.852;2023-05-07T10:29:44;26.19;44.65
65995;HTU21D;52764;51.036;5.852;2023-05-07T10:34:57;26.45;44.83
65995;HTU21D;52764;51.036;5.852;2023-05-07T10:37:25;26.43;44.50
65995;HTU21D;52764;51.036;5.852;2023-05-07T10:39:52;26.52;44.52
65995;HTU21D;52764;51.036;5.852;2023-05-07T10:42:18;26.58;44.42
65995;HTU21D;52764;51.036;5.852;2023-05-07T10:44:49;26.46;45.32
65995;HTU21D;52764;51.036;5.852;2023-05-07T10:47:22;26.27;45.57
65995;HTU21D;52764;51.036;5.852;2023-05-07T10:52:27;25.59;45.65
65995;HTU21D;52764;51.036;5.852;2023-05-07T10:55:19;25.58;46.26
65995;HTU21D;52764;51.036;5.852;2023-05-07T10:58:26;25.61;46.25
65995;HTU21D;52764;51.036;5.852;2023-05-07T11:01:01;25.40;46.19
65995;HTU21D;52764;51.036;5.852;2023-05-07T11:03:33;25.35;46.67
65995;HTU21D;52764;51.036;5.852;2023-05-07T11:06:15;25.39;46.38
65995;HTU21D;52764;51.036;5.852;2023-05-07T11:11:45;25.50;44.90
65995;HTU21D;52764;51.036;5.852;2023-05-07T11:17:11;25.47;45.08
65995;HTU21D;52764;51.036;5.852;2023-05-07T11:19:55;25.36;45.04
65995;HTU21D;52764;51.036;5.852;2023-05-07T11:22:41;25.37;44.98
65995;HTU21D;52764;51.036;5.852;2023-05-07T11:25:30;25.34;45.02
65995;HTU21D;52764;51.036;5.852;2023-05-07T11:28:07;25.33;45.20
65995;HTU21D;52764;51.036;5.852;2023-05-07T11:30:38;25.39;45.16
65995;HTU21D;52764;51.036;5.852;2023-05-07T11:33:09;25.46;45.03
65995;HTU21D;52764;51.036;5.852;2023-05-07T11:35:36;25.51;44.97
65995;HTU21D;52764;51.036;5.852;2023-05-07T11:38:03;25.49;44.92
65995;HTU21D;52764;51.036;5.852;2023-05-07T11:40:32;25.50;45.23
65995;HTU21D;52764;51.036;5.852;2023-05-07T11:42:57;25.46;45.28
65995;HTU21D;52764;51.036;5.852;2023-05-07T11:45:24;25.43;46.63
65995;HTU21D;52764;51.036;5.852;2023-05-07T11:47:52;25.30;49.71
65995;HTU21D;52764;51.036;5.852;2023-05-07T11:50:18;25.03;52.50
65995;HTU21D;52764;51.036;5.852;2023-05-07T11:52:50;24.73;54.33
65995;HTU21D;52764;51.036;5.852;2023-05-07T11:55:18;24.43;55.48
65995;HTU21D;52764;51.036;5.852;2023-05-07T11:57:44;24.19;56.97
65995;HTU21D;52764;51.036;5.852;2023-05-07T12:00:11;23.99;59.47
65995;HTU21D;52764;51.036;5.852;2023-05-07T12:02:39;23.74;58.98
65995;HTU21D;52764;51.036;5.852;2023-05-07T12:05:06;23.51;60.31
65995;HTU21D;52764;51.036;5.852;2023-05-07T12:07:34;23.35;61.46
65995;HTU21D;52764;51.036;5.852;2023-05-07T12:10:04;23.14;61.93
65995;HTU21D;52764;51.036;5.852;2023-05-07T12:12:30;22.97;62.51
65995;HTU21D;52764;51.036;5.852;2023-05-07T12:14:56;22.80;63.16
65995;HTU21D;52764;51.036;5.852;2023-05-07T12:17:22;22.67;63.29
65995;HTU21D;52764;51.036;5.852;2023-05-07T12:19:48;22.57;64.26
65995;HTU21D;52764;51.036;5.852;2023-05-07T12:22:14;22.54;65.11
65995;HTU21D;52764;51.036;5.852;2023-05-07T12:24:58;22.56;66.10
65995;HTU21D;52764;51.036;5.852;2023-05-07T12:27:25;22.60;66.81
65995;HTU21D;52764;51.036;5.852;2023-05-07T12:29:51;22.67;67.25
65995;HTU21D;52764;51.036;5.852;2023-05-07T12:32:19;22.71;66.98
65995;HTU21D;52764;51.036;5.852;2023-05-07T12:34:46;22.75;65.22
65995;HTU21D;52764;51.036;5.852;2023-05-07T12:37:12;22.79;66.91
65995;HTU21D;52764;51.036;5.852;2023-05-07T12:39:44;22.85;65.98
65995;HTU21D;52764;51.036;5.852;2023-05-07T12:42:15;22.95;65.88
65995;HTU21D;52764;51.036;5.852;2023-05-07T12:44:45;23.08;64.92
65995;HTU21D;52764;51.036;5.852;2023-05-07T12:47:11;23.23;63.69
65995;HTU21D;52764;51.036;5.852;2023-05-07T12:49:38;23.30;62.29
65995;HTU21D;52764;51.036;5.852;2023-05-07T12:52:06;23.53;61.19
65995;HTU21D;52764;51.036;5.852;2023-05-07T12:54:36;23.71;59.74
65995;HTU21D;52764;51.036;5.852;2023-05-07T12:57:07;23.89;59.74
65995;HTU21D;52764;51.036;5.852;2023-05-07T12:59:41;24.02;59.30
65995;HTU21D;52764;51.036;5.852;2023-05-07T13:02:08;24.18;58.64
65995;HTU21D;52764;51.036;5.852;2023-05-07T13:04:35;24.35;58.46
65995;HTU21D;52764;51.036;5.852;2023-05-07T13:07:01;24.49;57.60
65995;HTU21D;52764;51.036;5.852;2023-05-07T13:09:28;24.64;57.80
65995;HTU21D;52764;51.036;5.852;2023-05-07T13:11:57;24.79;57.92
65995;HTU21D;52764;51.036;5.852;2023-05-07T13:14:25;19.88;57.42
65995;HTU21D;52764;51.036;5.852;2023-05-07T13:16:51;25.07;57.02
65995;HTU21D;52764;51.036;5.852;2023-05-07T13:19:16;25.18;56.94
65995;HTU21D;52764;51.036;5.852;2023-05-07T13:21:42;25.32;56.23
65995;HTU21D;52764;51.036;5.852;2023-05-07T13:24:08;25.38;54.02
65995;HTU21D;52764;51.036;5.852;2023-05-07T13:26:34;25.39;51.86
65995;HTU21D;52764;51.036;5.852;2023-05-07T13:29:00;25.43;51.85
65995;HTU21D;52764;51.036;5.852;2023-05-07T13:31:26;25.48;52.43
65995;HTU21D;52764;51.036;5.852;2023-05-07T13:33:51;25.54;52.88
65995;HTU21D;52764;51.036;5.852;2023-05-07T13:36:18;25.63;52.69
65995;HTU21D;52764;51.036;5.852;2023-05-07T13:38:43;25.67;52.78
65995;HTU21D;52764;51.036;5.852;2023-05-07T13:41:09;25.75;52.16
65995;HTU21D;52764;51.036;5.852;2023-05-07T13:43:35;25.78;51.64
65995;HTU21D;52764;51.036;5.852;2023-05-07T13:46:00;25.62;51.79
65995;HTU21D;52764;51.036;5.852;2023-05-07T13:48:26;25.49;51.24
65995;HTU21D;52764;51.036;5.852;2023-05-07T13:50:53;25.31;51.53
65995;HTU21D;52764;51.036;5.852;2023-05-07T13:53:19;25.21;52.30
65995;HTU21D;52764;51.036;5.852;2023-05-07T13:55:45;25.12;52.30
65995;HTU21D;52764;51.036;5.852;2023-05-07T13:58:11;25.01;52.62
65995;HTU21D;52764;51.036;5.852;2023-05-07T14:00:37;24.95;51.83
65995;HTU21D;52764;51.036;5.852;2023-05-07T14:03:04;24.93;52.30
65995;HTU21D;52764;51.036;5.852;2023-05-07T14:05:30;24.89;51.50
65995;HTU21D;52764;51.036;5.852;2023-05-07T14:07:58;24.87;51.50
65995;HTU21D;52764;51.036;5.852;2023-05-07T14:10:25;24.87;51.50
65995;HTU21D;52764;51.036;5.852;2023-05-07T14:12:51;24.87;50.76
65995;HTU21D;52764;51.036;5.852;2023-05-07T14:15:18;24.80;52.30
65995;HTU21D;52764;51.036;5.852;2023-05-07T14:17:44;24.87;52.38
65995;HTU21D;52764;51.036;5.852;2023-05-07T14:20:11;24.85;52.82
65995;HTU21D;52764;51.036;5.852;2023-05-07T14:22:37;24.78;52.24
65995;HTU21D;52764;51.036;5.852;2023-05-07T14:25:03;24.70;52.56
65995;HTU21D;52764;51.036;5.852;2023-05-07T14:27:29;24.66;52.40
65995;HTU21D;52764;51.036;5.852;2023-05-07T14:29:54;24.65;52.38
65995;HTU21D;52764;51.036;5.852;2023-05-07T14:32:21;24.68;52.43
65995;HTU21D;52764;51.036;5.852;2023-05-07T14:34:47;24.68;52.65
65995;HTU21D;52764;51.036;5.852;2023-05-07T14:37:12;24.66;51.95
65995;HTU21D;52764;51.036;5.852;2023-05-07T14:39:38;24.66;52.30
65995;HTU21D;52764;51.036;5.852;2023-05-07T14:42:04;8.41;52.07
65995;HTU21D;52764;51.036;5.852;2023-05-07T14:44:30;24.62;52.47
65995;HTU21D;52764;51.036;5.852;2023-05-07T14:46:56;24.63;53.15
65995;HTU21D;52764;51.036;5.852;2023-05-07T14:49:22;24.72;52.81
65995;HTU21D;52764;51.036;5.852;2023-05-07T14:51:48;19.39;52.00
65995;HTU21D;52764;51.036;5.852;2023-05-07T14:54:14;24.69;51.43
65995;HTU21D;52764;51.036;5.852;2023-05-07T14:56:40;24.62;50.50
65995;HTU21D;52764;51.036;5.852;2023-05-07T14:59:07;24.49;51.32
65995;HTU21D;52764;51.036;5.852;2023-05-07T15:01:37;24.39;51.72
65995;HTU21D;52764;51.036;5.852;2023-05-07T15:04:04;24.28;51.10
65995;HTU21D;52764;51.036;5.852;2023-05-07T15:06:30;24.19;50.90
65995;HTU21D;52764;51.036;5.852;2023-05-07T15:08:56;24.20;51.24
65995;HTU21D;52764;51.036;5.852;2023-05-07T15:11:22;24.24;51.42
65995;HTU21D;52764;51.036;5.852;2023-05-07T15:13:49;24.30;48.15
65995;HTU21D;52764;51.036;5.852;2023-05-07T15:16:15;24.47;52.01
65995;HTU21D;52764;51.036;5.852;2023-05-07T15:18:40;24.56;50.45
65995;HTU21D;52764;51.036;5.852;2023-05-07T15:21:06;24.58;51.85
65995;HTU21D;52764;51.036;5.852;2023-05-07T15:23:33;24.54;51.39
65995;HTU21D;52764;51.036;5.852;2023-05-07T15:25:58;24.49;51.59
65995;HTU21D;52764;51.036;5.852;2023-05-07T15:28:24;24.44;52.20
65995;HTU21D;52764;51.036;5.852;2023-05-07T15:30:52;24.45;52.49